sensor_id;sensor_type;location;lat;lon;timestamp;pressure;altitude;pressure_sealevel;temperature;humidity
21828;BME280;11076;47.942;11.804;2022-08-14T00:03:50;94116.34;;;13.30;78.52
21828;BME280;11076;47.942;11.804;2022-08-14T00:08:53;94113.31;;;13.26;78.72
21828;BME280;11076;47.942;11.804;2022-08-14T00:13:56;94102.75;;;13.20;78.92
21828;BME280;11076;47.942;11.804;2022-08-14T00:18:59;94095.88;;;13.12;79.17
21828;BME280;11076;47.942;11.804;2022-08-14T00:24:01;94095.09;;;13.11;78.98
21828;BME280;11076;47.942;11.804;2022-08-14T00:29:05;94085.31;;;13.05;79.35
21828;BME280;11076;47.942;11.804;2022-08-14T00:34:08;94084.97;;;13.02;79.80
21828;BME280;11076;47.942;11.804;2022-08-14T00:39:12;94086.84;;;13.01;80.12
21828;BME280;11076;47.942;11.804;2022-08-14T00:44:16;94078.94;;;12.94;80.23
21828;BME280;11076;47.942;11.804;2022-08-14T00:49:18;94078.28;;;12.87;80.79
21828;BME280;11076;47.942;11.804;2022-08-14T00:54:21;94077.59;;;12.80;81.64
21828;BME280;11076;47.942;11.804;2022-08-14T00:59:26;94080.19;;;12.75;82.75
21828;BME280;11076;47.942;11.804;2022-08-14T01:04:32;94071.94;;;12.65;82.40
21828;BME280;11076;47.942;11.804;2022-08-14T01:09:37;94069.88;;;12.55;82.60
21828;BME280;11076;47.942;11.804;2022-08-14T01:14:39;94064.22;;;12.51;82.57
21828;BME280;11076;47.942;11.804;2022-08-14T01:19:42;94070.03;;;12.48;82.30
21828;BME280;11076;47.942;11.804;2022-08-14T01:25:03;94055.63;;;12.38;82.25
21828;BME280;11076;47.942;11.804;2022-08-14T01:30:07;94051.22;;;12.31;82.42
21828;BME280;11076;47.942;11.804;2022-08-14T01:35:10;94044.44;;;12.29;82.71
21828;BME280;11076;47.942;11.804;2022-08-14T01:40:13;94033.88;;;12.22;82.90
21828;BME280;11076;47.942;11.804;2022-08-14T01:45:15;94026.78;;;12.16;82.94
21828;BME280;11076;47.942;11.804;2022-08-14T01:50:18;94030.72;;;12.13;83.26
21828;BME280;11076;47.942;11.804;2022-08-14T01:55:20;94025.38;;;12.13;83.34
21828;BME280;11076;47.942;11.804;2022-08-14T02:00:24;94016.97;;;12.22;84.10
21828;BME280;11076;47.942;11.804;2022-08-14T02:05:26;94007.69;;;12.12;83.71
21828;BME280;11076;47.942;11.804;2022-08-14T02:10:32;94000.38;;;11.96;84.29
21828;BME280;11076;47.942;11.804;2022-08-14T02:15:36;93990.13;;;11.93;84.66
21828;BME280;11076;47.942;11.804;2022-08-14T02:20:42;93985.84;;;11.92;84.88
21828;BME280;11076;47.942;11.804;2022-08-14T02:25:44;93989.56;;;11.91;84.96
21828;BME280;11076;47.942;11.804;2022-08-14T02:30:46;93987.94;;;11.90;86.24
21828;BME280;11076;47.942;11.804;2022-08-14T02:35:49;93982.78;;;11.88;85.29
21828;BME280;11076;47.942;11.804;2022-08-14T02:40:53;93983.25;;;11.73;85.76
21828;BME280;11076;47.942;11.804;2022-08-14T02:45:56;93977.69;;;11.63;86.02
21828;BME280;11076;47.942;11.804;2022-08-14T02:50:59;93972.13;;;11.53;86.13
21828;BME280;11076;47.942;11.804;2022-08-14T02:56:02;93957.22;;;11.45;86.69
21828;BME280;11076;47.942;11.804;2022-08-14T03:01:06;93951.31;;;11.43;87.23
21828;BME280;11076;47.942;11.804;2022-08-14T03:06:10;93956.19;;;11.46;86.78
21828;BME280;11076;47.942;11.804;2022-08-14T03:11:13;93959.69;;;11.35;87.43
21828;BME280;11076;47.942;11.804;2022-08-14T03:16:19;93956.78;;;11.37;86.99
21828;BME280;11076;47.942;11.804;2022-08-14T03:21:22;93956.88;;;11.30;87.73
21828;BME280;11076;47.942;11.804;2022-08-14T03:26:25;93952.81;;;11.27;86.97
21828;BME280;11076;47.942;11.804;2022-08-14T03:31:28;93945.38;;;11.06;87.83
21828;BME280;11076;47.942;11.804;2022-08-14T03:36:31;93942.97;;;11.04;88.13
21828;BME280;11076;47.942;11.804;2022-08-14T03:41:33;93937.03;;;11.02;87.90
21828;BME280;11076;47.942;11.804;2022-08-14T03:46:37;93936.78;;;11.04;88.47
21828;BME280;11076;47.942;11.804;2022-08-14T03:51:40;93942.47;;;11.19;89.20
21828;BME280;11076;47.942;11.804;2022-08-14T03:56:42;93937.34;;;11.41;89.39
21828;BME280;11076;47.942;11.804;2022-08-14T04:01:46;93929.91;;;11.31;89.12
21828;BME280;11076;47.942;11.804;2022-08-14T04:06:50;93926.66;;;11.18;88.73
21828;BME280;11076;47.942;11.804;2022-08-14T04:11:53;93918.75;;;11.23;89.16
21828;BME280;11076;47.942;11.804;2022-08-14T04:16:56;93916.16;;;11.40;89.62
21828;BME280;11076;47.942;11.804;2022-08-14T04:21:58;93914.25;;;11.64;89.52
21828;BME280;11076;47.942;11.804;2022-08-14T04:27:01;93920.31;;;11.59;88.77
21828;BME280;11076;47.942;11.804;2022-08-14T04:32:06;93931.41;;;11.51;88.63
21828;BME280;11076;47.942;11.804;2022-08-14T04:37:09;93922.66;;;11.55;87.57
21828;BME280;11076;47.942;11.804;2022-08-14T04:42:30;93914.16;;;11.59;87.81
21828;BME280;11076;47.942;11.804;2022-08-14T04:47:51;93910.72;;;11.75;87.66
21828;BME280;11076;47.942;11.804;2022-08-14T04:53:20;93908.03;;;11.87;87.85
21828;BME280;11076;47.942;11.804;2022-08-14T04:58:26;93898.84;;;12.11;87.41
21828;BME280;11076;47.942;11.804;2022-08-14T05:03:31;93891.09;;;12.27;87.08
21828;BME280;11076;47.942;11.804;2022-08-14T05:08:34;93890.06;;;12.45;86.93
21828;BME280;11076;47.942;11.804;2022-08-14T05:13:37;93881.91;;;13.41;84.48
21828;BME280;11076;47.942;11.804;2022-08-14T05:18:54;93866.88;;;18.23;70.17
21828;BME280;11076;47.942;11.804;2022-08-14T05:23:56;93857.00;;;21.87;59.35
21828;BME280;11076;47.942;11.804;2022-08-14T05:28:58;93839.97;;;23.81;52.63
21828;BME280;11076;47.942;11.804;2022-08-14T05:34:01;93843.09;;;25.33;48.80
21828;BME280;11076;47.942;11.804;2022-08-14T05:39:04;93835.22;;;26.47;46.22
21828;BME280;11076;47.942;11.804;2022-08-14T05:44:07;93849.19;;;26.24;44.55
21828;BME280;11076;47.942;11.804;2022-08-14T05:49:09;93846.84;;;27.94;41.51
21828;BME280;11076;47.942;11.804;2022-08-14T05:54:12;93864.06;;;28.65;39.66
21828;BME280;11076;47.942;11.804;2022-08-14T05:59:14;93850.28;;;28.41;39.16
21828;BME280;11076;47.942;11.804;2022-08-14T06:04:16;93851.44;;;28.03;39.07
21828;BME280;11076;47.942;11.804;2022-08-14T06:09:19;93857.31;;;28.50;38.30
21828;BME280;11076;47.942;11.804;2022-08-14T06:14:21;93852.97;;;29.02;36.83
21828;BME280;11076;47.942;11.804;2022-08-14T06:19:24;93849.63;;;28.56;36.81
21828;BME280;11076;47.942;11.804;2022-08-14T06:24:27;93857.72;;;24.76;41.94
21828;BME280;11076;47.942;11.804;2022-08-14T06:29:30;93859.88;;;21.16;49.60
21828;BME280;11076;47.942;11.804;2022-08-14T06:34:32;93872.59;;;19.83;52.49
21828;BME280;11076;47.942;11.804;2022-08-14T06:39:34;93875.38;;;19.24;54.56
21828;BME280;11076;47.942;11.804;2022-08-14T06:44:37;93878.31;;;18.94;56.64
21828;BME280;11076;47.942;11.804;2022-08-14T06:49:40;93876.28;;;18.80;56.80
21828;BME280;11076;47.942;11.804;2022-08-14T06:54:43;93872.91;;;18.94;57.51
21828;BME280;11076;47.942;11.804;2022-08-14T06:59:46;93873.41;;;19.01;58.28
21828;BME280;11076;47.942;11.804;2022-08-14T07:04:48;93876.28;;;19.10;58.69
21828;BME280;11076;47.942;11.804;2022-08-14T07:10:10;93864.69;;;19.33;59.08
21828;BME280;11076;47.942;11.804;2022-08-14T07:15:12;93859.19;;;19.67;59.47
21828;BME280;11076;47.942;11.804;2022-08-14T07:20:15;93851.94;;;19.87;59.33
21828;BME280;11076;47.942;11.804;2022-08-14T07:25:21;93833.09;;;20.20;59.20
21828;BME280;11076;47.942;11.804;2022-08-14T07:30:23;93828.09;;;20.27;60.04
21828;BME280;11076;47.942;11.804;2022-08-14T07:35:26;93833.41;;;20.37;60.15
21828;BME280;11076;47.942;11.804;2022-08-14T07:40:29;93831.63;;;20.46;59.67
21828;BME280;11076;47.942;11.804;2022-08-14T07:45:31;93814.25;;;20.48;59.17
21828;BME280;11076;47.942;11.804;2022-08-14T07:50:34;93813.72;;;20.45;59.24
21828;BME280;11076;47.942;11.804;2022-08-14T07:55:37;93820.84;;;20.60;60.29
21828;BME280;11076;47.942;11.804;2022-08-14T08:00:40;93809.97;;;20.79;59.29
21828;BME280;11076;47.942;11.804;2022-08-14T08:05:44;93815.06;;;21.00;57.27
21828;BME280;11076;47.942;11.804;2022-08-14T08:10:47;93806.75;;;21.24;57.17
21828;BME280;11076;47.942;11.804;2022-08-14T08:15:53;93801.78;;;21.45;57.21
21828;BME280;11076;47.942;11.804;2022-08-14T08:20:56;93809.75;;;21.55;56.84
21828;BME280;11076;47.942;11.804;2022-08-14T08:25:59;93813.69;;;21.77;57.10
21828;BME280;11076;47.942;11.804;2022-08-14T08:31:03;93808.81;;;21.88;55.39
21828;BME280;11076;47.942;11.804;2022-08-14T08:36:08;93811.22;;;22.03;56.06
21828;BME280;11076;47.942;11.804;2022-08-14T08:41:12;93817.47;;;22.17;53.80
21828;BME280;11076;47.942;11.804;2022-08-14T08:46:18;93818.69;;;22.25;52.51
21828;BME280;11076;47.942;11.804;2022-08-14T08:51:27;93824.28;;;22.42;49.63
21828;BME280;11076;47.942;11.804;2022-08-14T09:01:39;93805.25;;;22.65;50.07
21828;BME280;11076;47.942;11.804;2022-08-14T09:06:46;93796.47;;;22.68;49.26
21828;BME280;11076;47.942;11.804;2022-08-14T09:11:50;93789.66;;;22.79;49.54
21828;BME280;11076;47.942;11.804;2022-08-14T09:16:57;93794.00;;;23.03;49.95
21828;BME280;11076;47.942;11.804;2022-08-14T09:22:01;93790.81;;;23.10;49.59
21828;BME280;11076;47.942;11.804;2022-08-14T09:27:04;93778.91;;;23.28;49.03
21828;BME280;11076;47.942;11.804;2022-08-14T09:32:07;93775.94;;;23.47;48.79
21828;BME280;11076;47.942;11.804;2022-08-14T09:37:17;93780.50;;;23.60;50.17
21828;BME280;11076;47.942;11.804;2022-08-14T09:42:34;93785.88;;;23.83;48.58
21828;BME280;11076;47.942;11.804;2022-08-14T09:47:53;93777.44;;;24.11;49.16
21828;BME280;11076;47.942;11.804;2022-08-14T09:53:01;93776.47;;;24.07;47.58
21828;BME280;11076;47.942;11.804;2022-08-14T09:58:14;93769.91;;;24.25;47.04
21828;BME280;11076;47.942;11.804;2022-08-14T10:03:31;93776.19;;;24.34;46.06
21828;BME280;11076;47.942;11.804;2022-08-14T10:08:44;93772.03;;;24.46;44.72
21828;BME280;11076;47.942;11.804;2022-08-14T10:13:56;93764.19;;;24.61;44.25
21828;BME280;11076;47.942;11.804;2022-08-14T10:19:09;93752.25;;;24.84;44.21
21828;BME280;11076;47.942;11.804;2022-08-14T10:24:23;93757.38;;;24.94;43.42
21828;BME280;11076;47.942;11.804;2022-08-14T10:29:37;93755.41;;;25.12;43.05
21828;BME280;11076;47.942;11.804;2022-08-14T10:34:40;93748.66;;;25.18;41.46
21828;BME280;11076;47.942;11.804;2022-08-14T10:39:56;93732.41;;;25.22;43.69
21828;BME280;11076;47.942;11.804;2022-08-14T10:45:00;93733.31;;;25.43;40.80
21828;BME280;11076;47.942;11.804;2022-08-14T10:50:02;93727.94;;;25.55;40.59
21828;BME280;11076;47.942;11.804;2022-08-14T10:55:08;93723.00;;;25.78;39.09
21828;BME280;11076;47.942;11.804;2022-08-14T11:00:18;93713.03;;;25.74;36.88
21828;BME280;11076;47.942;11.804;2022-08-14T11:05:23;93708.31;;;25.83;38.50
21828;BME280;11076;47.942;11.804;2022-08-14T11:15:42;93682.03;;;26.12;38.66
21828;BME280;11076;47.942;11.804;2022-08-14T11:20:48;93676.50;;;25.99;37.86
21828;BME280;11076;47.942;11.804;2022-08-14T11:25:52;93673.88;;;26.24;37.90
21828;BME280;11076;47.942;11.804;2022-08-14T11:30:57;93675.03;;;26.23;36.04
21828;BME280;11076;47.942;11.804;2022-08-14T11:36:03;93660.31;;;26.49;35.76
21828;BME280;11076;47.942;11.804;2022-08-14T11:41:07;93656.56;;;26.74;37.85
21828;BME280;11076;47.942;11.804;2022-08-14T11:46:10;93651.88;;;26.87;35.78
21828;BME280;11076;47.942;11.804;2022-08-14T11:51:16;93645.03;;;26.81;35.72
21828;BME280;11076;47.942;11.804;2022-08-14T11:56:22;93629.28;;;26.90;35.23
21828;BME280;11076;47.942;11.804;2022-08-14T12:01:29;93624.84;;;26.98;37.13
21828;BME280;11076;47.942;11.804;2022-08-14T12:06:46;93625.44;;;27.16;37.03
21828;BME280;11076;47.942;11.804;2022-08-14T12:11:49;93613.53;;;27.12;34.95
21828;BME280;11076;47.942;11.804;2022-08-14T12:16:59;93613.53;;;27.12;34.51
21828;BME280;11076;47.942;11.804;2022-08-14T12:22:02;93608.88;;;27.25;35.20
21828;BME280;11076;47.942;11.804;2022-08-14T12:27:04;93611.03;;;27.31;34.61
21828;BME280;11076;47.942;11.804;2022-08-14T12:32:07;93608.88;;;27.37;35.16
21828;BME280;11076;47.942;11.804;2022-08-14T12:37:09;93602.00;;;27.43;33.95
21828;BME280;11076;47.942;11.804;2022-08-14T12:42:12;93595.41;;;27.32;32.17
21828;BME280;11076;47.942;11.804;2022-08-14T12:47:16;93591.47;;;27.45;32.16
21828;BME280;11076;47.942;11.804;2022-08-14T12:52:37;93598.81;;;27.41;32.06
21828;BME280;11076;47.942;11.804;2022-08-14T12:57:42;93580.50;;;27.45;31.34
21828;BME280;11076;47.942;11.804;2022-08-14T13:02:48;93585.28;;;27.61;31.54
21828;BME280;11076;47.942;11.804;2022-08-14T13:07:54;93570.44;;;27.62;31.38
21828;BME280;11076;47.942;11.804;2022-08-14T13:12:59;93562.63;;;27.76;31.67
21828;BME280;11076;47.942;11.804;2022-08-14T13:18:15;93559.19;;;27.67;30.45
21828;BME280;11076;47.942;11.804;2022-08-14T13:23:18;93553.47;;;27.72;30.69
21828;BME280;11076;47.942;11.804;2022-08-14T13:28:22;93537.19;;;27.79;30.38
21828;BME280;11076;47.942;11.804;2022-08-14T13:33:28;93531.25;;;27.89;31.39
21828;BME280;11076;47.942;11.804;2022-08-14T13:38:31;93532.59;;;27.83;32.03
21828;BME280;11076;47.942;11.804;2022-08-14T13:43:34;93530.66;;;27.96;31.49
21828;BME280;11076;47.942;11.804;2022-08-14T13:48:40;93518.16;;;27.99;30.36
21828;BME280;11076;47.942;11.804;2022-08-14T13:53:48;93516.75;;;28.05;29.80
21828;BME280;11076;47.942;11.804;2022-08-14T13:59:03;93509.59;;;28.00;30.50
21828;BME280;11076;47.942;11.804;2022-08-14T14:04:05;93509.94;;;27.99;29.05
21828;BME280;11076;47.942;11.804;2022-08-14T14:09:10;93505.25;;;28.15;29.70
21828;BME280;11076;47.942;11.804;2022-08-14T14:14:16;93508.78;;;28.00;28.30
21828;BME280;11076;47.942;11.804;2022-08-14T14:19:19;93494.00;;;28.04;29.70
21828;BME280;11076;47.942;11.804;2022-08-14T14:24:22;93498.88;;;28.11;30.09
21828;BME280;11076;47.942;11.804;2022-08-14T14:29:25;93486.25;;;28.22;29.96
21828;BME280;11076;47.942;11.804;2022-08-14T14:34:29;93481.44;;;28.19;29.31
21828;BME280;11076;47.942;11.804;2022-08-14T14:39:34;93485.59;;;28.13;29.77
21828;BME280;11076;47.942;11.804;2022-08-14T14:44:38;93485.69;;;28.16;30.08
21828;BME280;11076;47.942;11.804;2022-08-14T14:49:47;93478.69;;;28.19;30.95
21828;BME280;11076;47.942;11.804;2022-08-14T14:54:50;93469.75;;;28.22;30.47
21828;BME280;11076;47.942;11.804;2022-08-14T14:59:53;93453.72;;;28.24;30.15
21828;BME280;11076;47.942;11.804;2022-08-14T15:04:56;93451.59;;;28.33;30.40
21828;BME280;11076;47.942;11.804;2022-08-14T15:09:58;93448.91;;;28.21;30.96
21828;BME280;11076;47.942;11.804;2022-08-14T15:15:00;93447.53;;;28.27;30.80
21828;BME280;11076;47.942;11.804;2022-08-14T15:20:14;93444.22;;;28.06;31.23
21828;BME280;11076;47.942;11.804;2022-08-14T15:25:17;93443.56;;;27.96;30.92
21828;BME280;11076;47.942;11.804;2022-08-14T15:30:19;93441.78;;;27.88;30.90
21828;BME280;11076;47.942;11.804;2022-08-14T15:35:22;93436.94;;;27.85;32.02
21828;BME280;11076;47.942;11.804;2022-08-14T15:40:24;93426.47;;;27.75;31.16
21828;BME280;11076;47.942;11.804;2022-08-14T15:45:27;93430.13;;;27.79;30.88
21828;BME280;11076;47.942;11.804;2022-08-14T15:50:29;93428.44;;;27.74;31.23
21828;BME280;11076;47.942;11.804;2022-08-14T15:55:32;93420.16;;;27.58;32.32
21828;BME280;11076;47.942;11.804;2022-08-14T16:00:35;93417.19;;;27.51;31.15
21828;BME280;11076;47.942;11.804;2022-08-14T16:05:56;93411.13;;;27.30;31.31
21828;BME280;11076;47.942;11.804;2022-08-14T16:11:00;93418.19;;;27.31;31.67
21828;BME280;11076;47.942;11.804;2022-08-14T16:16:04;93409.25;;;27.22;31.88
21828;BME280;11076;47.942;11.804;2022-08-14T16:21:09;93406.56;;;27.09;31.77
21828;BME280;11076;47.942;11.804;2022-08-14T16:26:13;93397.91;;;26.95;32.41
21828;BME280;11076;47.942;11.804;2022-08-14T16:31:18;93402.53;;;26.78;33.57
21828;BME280;11076;47.942;11.804;2022-08-14T16:36:21;93400.34;;;26.59;33.49
21828;BME280;11076;47.942;11.804;2022-08-14T16:41:25;93398.38;;;26.48;34.32
21828;BME280;11076;47.942;11.804;2022-08-14T16:46:36;93401.47;;;26.22;35.38
21828;BME280;11076;47.942;11.804;2022-08-14T16:51:41;93399.50;;;25.97;36.58
21828;BME280;11076;47.942;11.804;2022-08-14T16:56:45;93392.59;;;25.46;37.75
21828;BME280;11076;47.942;11.804;2022-08-14T17:01:56;93391.66;;;25.20;36.83
21828;BME280;11076;47.942;11.804;2022-08-14T17:07:00;93394.81;;;25.10;37.02
21828;BME280;11076;47.942;11.804;2022-08-14T17:12:11;93398.75;;;24.79;38.16
21828;BME280;11076;47.942;11.804;2022-08-14T17:17:14;93400.97;;;24.56;39.41
21828;BME280;11076;47.942;11.804;2022-08-14T17:22:16;93400.91;;;24.35;39.88
21828;BME280;11076;47.942;11.804;2022-08-14T17:27:20;93411.13;;;24.09;41.51
21828;BME280;11076;47.942;11.804;2022-08-14T17:32:29;93407.84;;;23.77;42.24
21828;BME280;11076;47.942;11.804;2022-08-14T17:37:34;93411.94;;;23.27;44.53
21828;BME280;11076;47.942;11.804;2022-08-14T17:47:49;93408.53;;;22.69;45.74
21828;BME280;11076;47.942;11.804;2022-08-14T17:52:52;93410.72;;;22.50;46.07
21828;BME280;11076;47.942;11.804;2022-08-14T17:57:54;93403.81;;;22.35;46.73
21828;BME280;11076;47.942;11.804;2022-08-14T18:02:57;93409.97;;;22.18;47.50
21828;BME280;11076;47.942;11.804;2022-08-14T18:08:00;93406.19;;;21.96;48.75
21828;BME280;11076;47.942;11.804;2022-08-14T18:13:08;93414.69;;;21.63;49.56
21828;BME280;11076;47.942;11.804;2022-08-14T18:18:12;93416.94;;;21.39;50.65
21828;BME280;11076;47.942;11.804;2022-08-14T18:23:14;93415.81;;;21.17;51.17
21828;BME280;11076;47.942;11.804;2022-08-14T18:28:20;93424.25;;;20.93;52.03
21828;BME280;11076;47.942;11.804;2022-08-14T18:33:33;93422.13;;;20.68;52.92
21828;BME280;11076;47.942;11.804;2022-08-14T18:38:36;93420.19;;;20.54;53.36
21828;BME280;11076;47.942;11.804;2022-08-14T18:43:43;93432.47;;;20.38;54.15
21828;BME280;11076;47.942;11.804;2022-08-14T18:49:15;93435.28;;;20.19;54.59
21828;BME280;11076;47.942;11.804;2022-08-14T18:54:28;93445.84;;;20.06;55.53
21828;BME280;11076;47.942;11.804;2022-08-14T18:59:36;93443.84;;;19.98;56.90
21828;BME280;11076;47.942;11.804;2022-08-14T19:04:40;93444.03;;;19.88;57.67
21828;BME280;11076;47.942;11.804;2022-08-14T19:09:54;93449.16;;;19.76;58.56
21828;BME280;11076;47.942;11.804;2022-08-14T19:15:08;93462.31;;;19.63;58.98
21828;BME280;11076;47.942;11.804;2022-08-14T19:20:12;93459.38;;;19.46;59.74
21828;BME280;11076;47.942;11.804;2022-08-14T19:25:54;93460.47;;;19.45;60.35
21828;BME280;11076;47.942;11.804;2022-08-14T19:36:51;93461.03;;;19.28;61.45
21828;BME280;11076;47.942;11.804;2022-08-14T19:42:06;93463.31;;;19.21;62.49
21828;BME280;11076;47.942;11.804;2022-08-14T19:47:09;93468.22;;;19.19;63.19
21828;BME280;11076;47.942;11.804;2022-08-14T19:52:27;93479.94;;;19.14;63.50
21828;BME280;11076;47.942;11.804;2022-08-14T19:57:30;93479.44;;;19.12;64.05
21828;BME280;11076;47.942;11.804;2022-08-14T20:02:33;93468.94;;;19.05;64.40
21828;BME280;11076;47.942;11.804;2022-08-14T20:07:37;93474.75;;;18.99;65.10
21828;BME280;11076;47.942;11.804;2022-08-14T20:12:40;93475.47;;;18.85;65.68
21828;BME280;11076;47.942;11.804;2022-08-14T20:17:48;93467.53;;;18.70;67.02
21828;BME280;11076;47.942;11.804;2022-08-14T20:22:52;93479.09;;;18.57;67.31
21828;BME280;11076;47.942;11.804;2022-08-14T20:27:54;93490.25;;;18.50;67.63
21828;BME280;11076;47.942;11.804;2022-08-14T20:33:05;93495.44;;;18.46;67.67
21828;BME280;11076;47.942;11.804;2022-08-14T20:38:23;93510.28;;;18.49;68.07
21828;BME280;11076;47.942;11.804;2022-08-14T20:43:31;93505.69;;;18.49;68.61
21828;BME280;11076;47.942;11.804;2022-08-14T20:54:05;93512.72;;;18.26;69.20
21828;BME280;11076;47.942;11.804;2022-08-14T21:09:24;93518.16;;;17.97;71.27
21828;BME280;11076;47.942;11.804;2022-08-14T21:14:27;93512.34;;;17.85;72.05
21828;BME280;11076;47.942;11.804;2022-08-14T21:19:29;93514.59;;;17.73;72.73
21828;BME280;11076;47.942;11.804;2022-08-14T21:24:32;93515.78;;;17.61;73.81
21828;BME280;11076;47.942;11.804;2022-08-14T21:29:35;93516.38;;;17.53;74.41
21828;BME280;11076;47.942;11.804;2022-08-14T21:34:38;93520.25;;;17.42;74.31
21828;BME280;11076;47.942;11.804;2022-08-14T21:39:44;93513.38;;;17.25;75.00
21828;BME280;11076;47.942;11.804;2022-08-14T21:44:46;93507.16;;;17.25;75.41
21828;BME280;11076;47.942;11.804;2022-08-14T21:49:52;93510.69;;;17.20;75.62
21828;BME280;11076;47.942;11.804;2022-08-14T21:54:54;93509.03;;;17.24;76.76
21828;BME280;11076;47.942;11.804;2022-08-14T21:59:57;93502.28;;;17.27;76.73
21828;BME280;11076;47.942;11.804;2022-08-14T22:05:15;93511.47;;;17.26;77.18
21828;BME280;11076;47.942;11.804;2022-08-14T22:10:18;93522.97;;;17.37;77.63
21828;BME280;11076;47.942;11.804;2022-08-14T22:15:21;93519.13;;;17.48;77.43
21828;BME280;11076;47.942;11.804;2022-08-14T22:20:25;93516.84;;;17.60;77.07
21828;BME280;11076;47.942;11.804;2022-08-14T22:25:32;93520.56;;;17.69;76.21
21828;BME280;11076;47.942;11.804;2022-08-14T22:30:37;93507.75;;;17.85;73.44
21828;BME280;11076;47.942;11.804;2022-08-14T22:35:39;93500.66;;;18.19;69.57
21828;BME280;11076;47.942;11.804;2022-08-14T22:40:44;93497.66;;;18.44;65.83
21828;BME280;11076;47.942;11.804;2022-08-14T22:45:47;93495.47;;;18.65;62.58
21828;BME280;11076;47.942;11.804;2022-08-14T22:50:50;93497.22;;;18.80;60.94
21828;BME280;11076;47.942;11.804;2022-08-14T22:55:52;93504.41;;;18.90;59.55
21828;BME280;11076;47.942;11.804;2022-08-14T23:00:55;93490.63;;;18.86;59.17
21828;BME280;11076;47.942;11.804;2022-08-14T23:05:57;93489.50;;;18.68;59.38
21828;BME280;11076;47.942;11.804;2022-08-14T23:11:01;93492.94;;;18.50;60.38
21828;BME280;11076;47.942;11.804;2022-08-14T23:16:04;93501.19;;;18.40;60.96
21828;BME280;11076;47.942;11.804;2022-08-14T23:21:09;93499.31;;;18.40;61.43
21828;BME280;11076;47.942;11.804;2022-08-14T23:26:12;93493.16;;;18.35;61.87
21828;BME280;11076;47.942;11.804;2022-08-14T23:31:16;93487.63;;;18.21;62.46
21828;BME280;11076;47.942;11.804;2022-08-14T23:36:21;93487.75;;;18.11;62.97
21828;BME280;11076;47.942;11.804;2022-08-14T23:41:24;93486.13;;;18.09;62.84
21828;BME280;11076;47.942;11.804;2022-08-14T23:46:26;93483.91;;;18.17;62.74
21828;BME280;11076;47.942;11.804;2022-08-14T23:51:30;93482.34;;;18.11;63.01
21828;BME280;11076;47.942;11.804;2022-08-14T23:56:33;93484.97;;;18.16;62.78
